Time;durP1;ratioP1;P1;durP2;ratioP2;P2;SDS_P1;SDS_P2;PMS_P1;PMS_P2;Temp;Humidity;BMP_temperature;BMP_pressure;BME280_temperature;BME280_humidity;BME280_pressure;Samples;Min_cycle;Max_cycle;Signal;HPM_P1;HPM_P2
2022/05/25 00:00:02;;;;;;;;;;;;;;;14.34;75.66;100735.47;1674863;83;20329;-85
2022/05/25 00:02:31;;;;;;;;;;;;;;;14.35;75.74;100735.91;1673303;84;21509;-84
2022/05/25 00:04:57;;;;;;;;;;;;;;;14.38;75.87;100736.39;1679116;84;20823;-85
2022/05/25 00:07:24;;;;;;;;;;;;;;;14.41;75.94;100732.88;1680638;84;20567;-84
2022/05/25 00:09:51;;;;;;;;;;;;;;;14.43;75.98;100727.15;1690667;83;20381;-85
2022/05/25 00:12:18;;;;;;;;;;;;;;;14.47;76.05;100722.33;1674890;83;20267;-84
2022/05/25 00:14:44;;;;;;;;;;;;;;;14.51;76.06;100722.83;1674687;84;21742;-84
2022/05/25 00:17:11;;;;;;;;;;;;;;;14.49;76.03;100727.19;1678081;83;20270;-84
2022/05/25 00:22:22;;;;;;;;;;;;;;;14.48;76.24;100718.37;1678687;84;20601;-84
2022/05/25 00:24:49;;;;;;;;;;;;;;;14.51;76.29;100724.16;1673435;83;20220;-84
2022/05/25 00:27:17;;;;;;;;;;;;;;;14.52;76.36;100718.84;1671235;84;21798;-84
2022/05/25 00:29:43;;;;;;;;;;;;;;;14.54;76.29;100707.81;1666556;84;20230;-84
2022/05/25 00:32:10;;;;;;;;;;;;;;;14.52;76.28;100694.13;1670909;84;20258;-84
2022/05/25 00:34:37;;;;;;;;;;;;;;;14.51;76.40;100709.14;1657962;85;21596;-84
2022/05/25 00:37:08;;;;;;;;;;;;;;;14.54;76.52;100701.19;1670775;84;20218;-84
2022/05/25 00:39:35;;;;;;;;;;;;;;;14.58;76.52;100682.28;1669186;84;21768;-84
2022/05/25 00:42:05;;;;;;;;;;;;;;;14.58;76.52;100677.89;1669922;85;20247;-84
2022/05/25 00:44:32;;;;;;;;;;;;;;;14.60;76.55;100682.30;1671024;84;20214;-84
2022/05/25 00:46:58;;;;;;;;;;;;;;;14.62;76.63;100672.59;1670920;84;21139;-84
2022/05/25 00:49:30;;;;;;;;;;;;;;;14.63;76.59;100668.63;1671114;84;20254;-84
2022/05/25 00:52:04;;;;;;;;;;;;;;;14.63;76.62;100665.11;1669711;84;21765;-85
2022/05/25 00:54:37;;;;;;;;;;;;;;;14.65;76.69;100672.18;1672414;84;20179;-85
2022/05/25 00:57:09;;;;;;;;;;;;;;;14.68;76.68;100672.21;1667110;84;20204;-84
2022/05/25 00:59:39;;;;;;;;;;;;;;;14.69;76.73;100674.41;1669585;84;20376;-85
2022/05/25 01:02:08;;;;;;;;;;;;;;;14.70;76.77;100680.17;1664477;85;20213;-84
2022/05/25 01:04:33;;;;;;;;;;;;;;;14.69;76.73;100687.22;1669632;84;21817;-85
2022/05/25 01:07:09;;;;;;;;;;;;;;;14.68;76.78;100688.11;1667043;84;20553;-84
2022/05/25 01:09:53;;;;;;;;;;;;;;;14.67;76.75;100680.14;1654905;85;20168;-84
2022/05/25 01:12:42;;;;;;;;;;;;;;;14.64;76.76;100681.02;1669020;84;20557;-85
2022/05/25 01:15:23;;;;;;;;;;;;;;;14.65;76.83;100683.22;1668417;84;20199;-85
2022/05/25 01:18:17;;;;;;;;;;;;;;;14.61;76.79;100686.73;1668289;85;22588;-84
2022/05/25 01:20:59;;;;;;;;;;;;;;;14.56;76.84;100688.88;1665526;84;20878;-85
2022/05/25 01:23:55;;;;;;;;;;;;;;;14.49;76.87;100680.84;1639242;86;20221;-85
2022/05/25 01:26:27;;;;;;;;;;;;;;;14.45;76.98;100673.34;1639451;85;20425;-85
2022/05/25 01:29:04;;;;;;;;;;;;;;;14.44;77.15;100675.97;1624711;85;20941;-85
2022/05/25 01:31:52;;;;;;;;;;;;;;;14.41;77.18;100679.91;1625151;85;21769;-85
2022/05/25 01:34:34;;;;;;;;;;;;;;;14.39;77.27;100687.83;1615379;87;20535;-84
2022/05/25 01:37:36;;;;;;;;;;;;;;;14.39;77.45;100689.16;1603045;87;20213;-85
2022/05/25 01:40:06;;;;;;;;;;;;;;;14.41;77.60;100694.03;1630895;85;20351;-84
2022/05/25 01:42:36;;;;;;;;;;;;;;;14.01;77.68;100623.55;1650223;85;20217;-84
2022/05/25 01:45:04;;;;;;;;;;;;;;;14.46;77.83;100698.94;1677712;85;21263;-85
2022/05/25 01:47:32;;;;;;;;;;;;;;;14.48;77.92;100694.53;1680858;85;20337;-85
2022/05/25 01:50:17;;;;;;;;;;;;;;;14.52;78.00;100702.95;1701860;82;20251;-84
2022/05/25 01:52:46;;;;;;;;;;;;;;;14.56;78.00;100704.77;1700541;83;21224;-85
2022/05/25 01:55:22;;;;;;;;;;;;;;;14.59;78.01;100711.87;1709428;82;20216;-85
2022/05/25 01:57:49;;;;;;;;;;;;;;;14.62;78.01;100713.66;1697258;82;21850;-85
2022/05/25 02:00:33;;;;;;;;;;;;;;;14.56;78.06;100701.22;1697204;84;20205;-85
2022/05/25 02:05:50;;;;;;;;;;;;;;;14.67;78.15;100710.16;1697529;84;20423;-85
2022/05/25 02:08:23;;;;;;;;;;;;;;;14.72;78.13;100723.47;1687486;83;20211;-85
2022/05/25 02:10:58;;;;;;;;;;;;;;;14.76;78.18;100720.83;1661774;84;20314;-85
2022/05/25 02:13:31;;;;;;;;;;;;;;;14.80;78.15;100727.49;1688611;83;20204;-85
2022/05/25 02:16:17;;;;;;;;;;;;;;;14.84;78.18;100727.95;1680695;84;20219;-85
2022/05/25 02:19:05;;;;;;;;;;;;;;;14.88;78.13;100727.09;1685646;83;20396;-85
2022/05/25 02:21:32;;;;;;;;;;;;;;;14.89;78.08;100731.09;1684874;84;20228;-85
2022/05/25 02:24:10;;;;;;;;;;;;;;;14.92;78.18;100724.50;1679887;84;20291;-84
2022/05/25 02:26:50;;;;;;;;;;;;;;;14.96;78.15;100732.03;1681966;84;20187;-83
2022/05/25 02:29:22;;;;;;;;;;;;;;;14.97;78.05;100735.98;1645845;84;20227;-85
2022/05/25 02:32:04;;;;;;;;;;;;;;;15.01;78.07;100738.23;1663151;84;20315;-85
2022/05/25 02:34:31;;;;;;;;;;;;;;;15.04;77.99;100730.75;1672112;84;20651;-86
2022/05/25 02:37:00;;;;;;;;;;;;;;;15.03;77.91;100724.54;1682493;83;23247;-85
2022/05/25 02:39:29;;;;;;;;;;;;;;;15.05;77.92;100725.88;1691311;83;20236;-85
2022/05/25 02:41:56;;;;;;;;;;;;;;;15.04;77.77;100724.13;1695797;83;20272;-85
2022/05/25 02:44:24;;;;;;;;;;;;;;;15.05;77.81;100729.86;1675603;84;20851;-85
2022/05/25 02:46:50;;;;;;;;;;;;;;;15.04;77.71;100730.75;1687189;84;20788;-85
2022/05/25 02:49:17;;;;;;;;;;;;;;;15.02;77.73;100739.14;1691157;83;21937;-85
2022/05/25 02:51:46;;;;;;;;;;;;;;;15.02;77.79;100742.66;1687021;83;20600;-85
2022/05/25 02:54:12;;;;;;;;;;;;;;;15.01;77.73;100742.20;1691666;83;20612;-84
2022/05/25 02:56:39;;;;;;;;;;;;;;;15.02;77.79;100744.44;1694863;82;20510;-84
2022/05/25 02:59:05;;;;;;;;;;;;;;;15.02;77.82;100750.62;1699576;83;20244;-83
2022/05/25 03:01:32;;;;;;;;;;;;;;;15.05;77.91;100749.29;1695211;83;21726;-84
2022/05/25 03:04:01;;;;;;;;;;;;;;;15.08;77.93;100746.67;1692406;83;20268;-84
2022/05/25 03:06:29;;;;;;;;;;;;;;;15.11;77.92;100745.37;1692284;83;20223;-84
2022/05/25 03:08:54;;;;;;;;;;;;;;;15.10;77.76;100749.34;1691980;84;20388;-85
2022/05/25 03:11:21;;;;;;;;;;;;;;;15.10;77.87;100754.19;1691327;83;20501;-84
2022/05/25 03:13:48;;;;;;;;;;;;;;;15.12;77.88;100759.52;1691120;83;21829;-85
2022/05/25 03:16:15;;;;;;;;;;;;;;;15.12;77.89;100763.04;1660414;84;21253;-84
2022/05/25 03:18:45;;;;;;;;;;;;;;;15.15;77.91;100771.48;1674429;84;20219;-85
2022/05/25 03:21:13;;;;;;;;;;;;;;;15.17;77.96;100777.67;1695423;83;20188;-85
2022/05/25 03:23:42;;;;;;;;;;;;;;;15.20;78.06;100775.02;1679008;83;20250;-85
2022/05/25 03:26:16;;;;;;;;;;;;;;;15.22;77.95;100779.92;1666021;84;20306;-84
2022/05/25 03:28:42;;;;;;;;;;;;;;;15.25;78.03;100785.67;1686462;84;20231;-85
2022/05/25 03:31:08;;;;;;;;;;;;;;;15.19;77.95;100773.27;1681013;83;20229;-85
2022/05/25 03:33:42;;;;;;;;;;;;;;;15.30;77.92;100796.76;1668301;84;20598;-85
2022/05/25 03:36:07;;;;;;;;;;;;;;;15.33;77.88;100800.77;1692160;83;20232;-85
2022/05/25 03:38:36;;;;;;;;;;;;;;;15.37;77.82;100802.97;1670042;84;20283;-85
2022/05/25 03:41:06;;;;;;;;;;;;;;;15.38;77.76;100799.91;1672526;84;20268;-85
2022/05/25 03:43:38;;;;;;;;;;;;;;;15.28;77.70;100788.36;1679191;84;20826;-84
2022/05/25 03:46:09;;;;;;;;;;;;;;;15.35;77.67;100801.66;1687274;83;20259;-85
2022/05/25 03:48:36;;;;;;;;;;;;;;;15.35;77.79;100808.70;1692867;83;20235;-84
2022/05/25 03:51:02;;;;;;;;;;;;;;;15.35;77.91;100806.97;1695623;83;21777;-84
2022/05/25 03:53:31;;;;;;;;;;;;;;;15.37;77.95;100801.64;1693583;83;20376;-86
2022/05/25 03:56:00;;;;;;;;;;;;;;;15.40;77.92;100806.10;1687958;83;20255;-83
2022/05/25 03:58:26;;;;;;;;;;;;;;;15.40;77.94;100797.70;1727582;81;20426;-82
2022/05/25 04:00:58;;;;;;;;;;;;;;;15.42;77.96;100806.55;1732590;81;20336;-82
2022/05/25 04:03:25;;;;;;;;;;;;;;;15.44;77.96;100806.56;1708381;81;23540;-83
2022/05/25 04:05:51;;;;;;;;;;;;;;;15.41;77.88;100808.77;1722725;81;21139;-84
2022/05/25 04:08:23;;;;;;;;;;;;;;;15.40;77.98;100818.03;1727537;81;20242;-83
2022/05/25 04:10:50;;;;;;;;;;;;;;;15.39;78.09;100815.83;1729768;81;20563;-84
2022/05/25 04:13:20;;;;;;;;;;;;;;;15.42;78.17;100822.91;1739367;80;20669;-83
2022/05/25 04:15:46;;;;;;;;;;;;;;;15.41;78.22;100827.34;1720434;81;21777;-84
2022/05/25 04:18:12;;;;;;;;;;;;;;;15.42;78.17;100830.42;1733739;81;20226;-84
2022/05/25 04:20:41;;;;;;;;;;;;;;;15.44;78.26;100830.44;1733311;81;20257;-86
2022/05/25 04:23:11;;;;;;;;;;;;;;;15.43;78.33;100834.86;1721444;82;20584;-83
2022/05/25 04:25:38;;;;;;;;;;;;;;;15.42;78.37;100830.87;1725934;81;20218;-83
2022/05/25 04:28:09;;;;;;;;;;;;;;;15.41;78.31;100832.64;1718158;82;20308;-83
2022/05/25 04:30:35;;;;;;;;;;;;;;;15.40;78.41;100836.16;1730519;81;20225;-83
2022/05/25 04:33:04;;;;;;;;;;;;;;;15.45;78.64;100832.22;1731719;81;20272;-83
2022/05/25 04:35:30;;;;;;;;;;;;;;;15.50;78.59;100842.41;1735796;81;20397;-83
2022/05/25 04:37:59;;;;;;;;;;;;;;;15.55;78.53;100844.20;1730058;81;20238;-85
2022/05/25 04:40:33;;;;;;;;;;;;;;;15.60;78.29;100843.34;1730954;81;21927;-85
2022/05/25 04:43:01;;;;;;;;;;;;;;;15.75;78.39;100848.80;1736415;81;20366;-84
2022/05/25 04:45:27;;;;;;;;;;;;;;;15.91;78.29;100845.75;1735654;81;20258;-85
2022/05/25 04:47:58;;;;;;;;;;;;;;;16.07;78.13;100847.61;1713021;82;20245;-86
2022/05/25 04:50:25;;;;;;;;;;;;;;;16.25;77.82;100847.22;1732809;81;20253;-84
2022/05/25 04:52:56;;;;;;;;;;;;;;;16.31;77.37;100849.88;1732194;81;21749;-84
2022/05/25 04:58:20;;;;;;;;;;;;;;;16.68;77.22;100849.98;1702511;81;20247;-84
2022/05/25 05:00:54;;;;;;;;;;;;;;;17.31;78.59;100853.15;1693422;82;20563;-84
2022/05/25 05:03:24;;;;;;;;;;;;;;;18.97;80.08;100846.66;1700801;83;20298;-83
2022/05/25 05:05:50;;;;;;;;;;;;;;;21.15;77.96;100848.47;1704513;82;23137;-85
2022/05/25 05:08:17;;;;;;;;;;;;;;;21.98;73.34;100843.37;1697186;83;20261;-85
2022/05/25 05:10:43;;;;;;;;;;;;;;;23.27;73.94;100831.02;1690540;83;21000;-86
2022/05/25 05:13:09;;;;;;;;;;;;;;;25.37;71.91;100838.13;1702512;83;20373;-86
2022/05/25 05:15:37;;;;;;;;;;;;;;;27.24;68.55;100835.88;1708066;82;20218;-85
2022/05/25 05:18:04;;;;;;;;;;;;;;;28.94;66.23;100827.10;1710800;83;21700;-84
2022/05/25 05:20:31;;;;;;;;;;;;;;;30.17;60.51;100833.35;1677473;84;20189;-85
2022/05/25 05:22:57;;;;;;;;;;;;;;;30.96;59.57;100829.30;1678365;85;20194;-85
2022/05/25 05:25:24;;;;;;;;;;;;;;;31.35;55.99;100823.80;1659896;85;20467;-85
2022/05/25 05:27:51;;;;;;;;;;;;;;;31.81;54.94;100836.42;1660041;80;79085;-94
2022/05/25 05:30:22;;;;;;;;;;;;;;;32.39;53.74;100844.11;1659497;86;22378;-92
2022/05/25 05:32:48;;;;;;;;;;;;;;;33.10;51.66;100848.48;1664778;86;20367;-93
2022/05/25 05:35:17;;;;;;;;;;;;;;;32.06;48.33;100845.33;1665571;86;20708;-93
2022/05/25 05:37:50;;;;;;;;;;;;;;;29.88;46.38;100838.53;1664919;85;20391;-92
2022/05/25 05:40:21;;;;;;;;;;;;;;;27.59;46.71;100839.78;1646988;86;20244;-92
2022/05/25 05:42:49;;;;;;;;;;;;;;;25.71;48.19;100850.41;1658409;85;21820;-91
2022/05/25 05:45:18;;;;;;;;;;;;;;;24.31;49.13;100846.94;1645026;86;20224;-91
2022/05/25 05:47:49;;;;;;;;;;;;;;;23.51;50.36;100859.47;1661937;85;20216;-90
2022/05/25 05:50:18;;;;;;;;;;;;;;;22.80;50.73;100873.30;1663311;85;21534;-91
2022/05/25 05:52:44;;;;;;;;;;;;;;;22.19;51.94;100879.56;1657962;83;20269;-91
2022/05/25 05:55:13;;;;;;;;;;;;;;;21.55;52.46;100873.22;1659014;83;21764;-92
2022/05/25 05:57:43;;;;;;;;;;;;;;;21.24;53.67;100864.80;1625518;84;20207;-91
2022/05/25 06:00:10;;;;;;;;;;;;;;;21.02;53.79;100868.31;1658034;84;20185;-91
2022/05/25 06:02:39;;;;;;;;;;;;;;;20.45;53.91;100872.25;1629723;87;20983;-92
2022/05/25 06:05:06;;;;;;;;;;;;;;;19.95;54.95;100867.97;1656235;85;20253;-93
2022/05/25 06:07:33;;;;;;;;;;;;;;;19.63;55.55;100879.86;1650815;86;21821;-92
2022/05/25 06:09:59;;;;;;;;;;;;;;;19.28;56.14;100873.56;1681753;84;20205;-92
2022/05/25 06:12:28;;;;;;;;;;;;;;;19.03;56.90;100877.73;1685645;84;20660;-93
2022/05/25 06:14:57;;;;;;;;;;;;;;;18.93;57.33;100887.59;1677864;83;21125;-90
2022/05/25 06:20:08;;;;;;;;;;;;;;;18.87;58.11;100896.11;1685753;83;21878;-92
2022/05/25 06:22:36;;;;;;;;;;;;;;;18.97;58.13;100900.01;1685435;83;20529;-91
2022/05/25 06:25:03;;;;;;;;;;;;;;;18.93;58.10;100904.06;1685956;83;20224;-93
2022/05/25 06:27:30;;;;;;;;;;;;;;;18.87;58.30;100898.77;1689271;83;20420;-91
2022/05/25 06:29:56;;;;;;;;;;;;;;;18.75;58.37;100900.59;1666522;83;20193;-90
2022/05/25 06:32:23;;;;;;;;;;;;;;;18.69;58.37;100903.27;1686481;83;21796;-92
2022/05/25 06:34:51;;;;;;;;;;;;;;;18.67;58.43;100902.40;1640801;85;20247;-91
2022/05/25 06:37:23;;;;;;;;;;;;;;;18.81;58.63;100904.58;1639449;87;20212;-92
2022/05/25 06:39:49;;;;;;;;;;;;;;;19.03;58.93;100907.99;1679165;83;21031;-90
2022/05/25 06:42:16;;;;;;;;;;;;;;;19.32;58.70;100904.19;1679967;83;20509;-93
2022/05/25 06:44:45;;;;;;;;;;;;;;;19.58;58.66;100901.75;1672318;83;21764;-89
2022/05/25 06:47:27;;;;;;;;;;;;;;;19.87;58.39;100904.59;1663400;83;20537;-88
2022/05/25 06:49:53;;;;;;;;;;;;;;;19.81;57.75;100904.20;1669178;83;20961;-88
2022/05/25 06:52:21;;;;;;;;;;;;;;;19.64;57.61;100910.15;1667721;84;21402;-90
2022/05/25 06:54:54;;;;;;;;;;;;;;;19.39;57.77;100908.59;1661021;83;20212;-90
2022/05/25 06:57:25;;;;;;;;;;;;;;;19.43;58.19;100898.31;1663758;85;21516;-87
2022/05/25 06:59:51;;;;;;;;;;;;;;;19.71;58.31;100906.52;1670684;83;20384;-87
2022/05/25 07:02:18;;;;;;;;;;;;;;;19.80;57.98;100905.09;1662599;85;20213;-88
2022/05/25 07:04:54;;;;;;;;;;;;;;;19.99;58.29;100909.81;1657564;83;20670;-88
2022/05/25 07:07:24;;;;;;;;;;;;;;;20.22;58.03;100910.86;1652277;83;20224;-88
2022/05/25 07:09:53;;;;;;;;;;;;;;;20.51;58.21;100902.45;1657259;85;21865;-88
2022/05/25 07:12:24;;;;;;;;;;;;;;;20.77;57.65;100904.79;1621142;85;20360;-88
2022/05/25 07:14:51;;;;;;;;;;;;;;;20.90;57.31;100912.19;1660047;85;20276;-88
2022/05/25 07:17:17;;;;;;;;;;;;;;;20.90;56.99;100920.67;1643445;85;20565;-88
2022/05/25 07:19:44;;;;;;;;;;;;;;;20.73;56.67;100919.59;1670778;85;20717;-88
2022/05/25 07:22:11;;;;;;;;;;;;;;;20.54;56.87;100929.63;1663671;83;21845;-88
2022/05/25 07:24:40;;;;;;;;;;;;;;;20.35;56.55;100945.89;1665585;84;21212;-88
2022/05/25 07:27:05;;;;;;;;;;;;;;;20.04;56.57;100944.02;1656501;83;20236;-88
2022/05/25 07:29:32;;;;;;;;;;;;;;;19.79;56.63;100947.41;1663362;83;21655;-87
2022/05/25 07:32:04;;;;;;;;;;;;;;;19.69;57.26;100952.35;1667137;83;20671;-88
2022/05/25 07:34:38;;;;;;;;;;;;;;;19.88;57.11;100957.12;1675962;85;20586;-88
2022/05/25 07:37:05;;;;;;;;;;;;;;;20.19;57.43;100945.64;1664454;85;20202;-88
2022/05/25 07:39:39;;;;;;;;;;;;;;;20.32;56.55;100952.60;1667778;83;20959;-87
2022/05/25 07:42:11;;;;;;;;;;;;;;;20.23;56.13;100960.73;1656682;85;20459;-88
2022/05/25 07:44:41;;;;;;;;;;;;;;;20.10;56.28;100962.69;1659088;83;20224;-88
2022/05/25 07:47:07;;;;;;;;;;;;;;;20.19;56.54;100963.88;1655540;83;22138;-88
2022/05/25 07:49:33;;;;;;;;;;;;;;;20.27;55.92;100974.95;1658904;83;20220;-88
2022/05/25 07:52:02;;;;;;;;;;;;;;;20.23;55.89;100962.06;1667929;84;20237;-88
2022/05/25 07:54:28;;;;;;;;;;;;;;;20.34;56.24;100968.17;1643809;85;20445;-88
2022/05/25 07:56:55;;;;;;;;;;;;;;;20.50;55.70;100966.21;1660803;83;20257;-89
2022/05/25 07:59:21;;;;;;;;;;;;;;;20.69;55.59;100976.25;1668303;85;21863;-88
2022/05/25 08:07:30;;;;;;;;;;;;;;;21.08;54.41;100992.66;1666197;85;21377;-87
2022/05/25 08:10:02;;;;;;;;;;;;;;;20.96;54.42;100990.15;1672119;83;20215;-88
2022/05/25 08:12:30;;;;;;;;;;;;;;;20.98;54.27;100988.33;1644419;85;20557;-87
2022/05/25 08:14:57;;;;;;;;;;;;;;;20.97;53.84;100995.95;1669566;83;20327;-88
2022/05/25 08:17:23;;;;;;;;;;;;;;;21.00;53.79;100988.31;1664498;83;20785;-88
2022/05/25 08:19:49;;;;;;;;;;;;;;;21.00;53.46;100989.66;1671314;83;20317;-87
2022/05/25 08:22:16;;;;;;;;;;;;;;;21.05;53.58;100994.50;1667962;83;20228;-87
2022/05/25 08:24:43;;;;;;;;;;;;;;;21.19;53.71;100995.63;1664677;83;21827;-87
2022/05/25 08:27:10;;;;;;;;;;;;;;;21.44;53.69;100997.48;1673031;83;21275;-88
2022/05/25 08:29:36;;;;;;;;;;;;;;;21.74;53.62;100992.09;1671213;83;20208;-88
2022/05/25 08:32:06;;;;;;;;;;;;;;;21.99;53.05;100988.98;1669343;83;20527;-87
2022/05/25 08:34:31;;;;;;;;;;;;;;;22.25;52.99;100998.78;1671334;83;20206;-88
2022/05/25 08:36:58;;;;;;;;;;;;;;;22.50;52.82;100999.63;1666155;85;21761;-87
2022/05/25 08:39:24;;;;;;;;;;;;;;;22.73;52.19;100995.58;1659434;85;20221;-88
2022/05/25 08:41:52;;;;;;;;;;;;;;;22.88;51.98;101000.17;1657182;85;20220;-88
2022/05/25 08:44:19;;;;;;;;;;;;;;;22.99;50.95;100993.23;1660435;83;20499;-88
2022/05/25 08:46:46;;;;;;;;;;;;;;;23.02;50.85;100984.20;1659286;85;20317;-88
2022/05/25 08:49:16;;;;;;;;;;;;;;;23.13;50.30;100992.05;1663531;85;21829;-88
2022/05/25 08:51:47;;;;;;;;;;;;;;;23.04;50.07;100989.98;1646567;85;20237;-88
2022/05/25 08:54:14;;;;;;;;;;;;;;;22.96;50.05;100999.12;1661991;85;20245;-88
2022/05/25 08:56:52;;;;;;;;;;;;;;;22.88;49.52;100997.48;1673987;83;20375;-88
2022/05/25 08:59:27;;;;;;;;;;;;;;;22.65;49.65;101006.47;1656812;85;20197;-87
2022/05/25 09:02:03;;;;;;;;;;;;;;;22.71;50.01;101018.41;1664045;83;21244;-87
2022/05/25 09:04:53;;;;;;;;;;;;;;;22.86;49.89;101019.89;1654470;84;20232;-88
2022/05/25 09:07:25;;;;;;;;;;;;;;;22.91;49.57;101014.84;1669557;83;20214;-86
2022/05/25 09:09:55;;;;;;;;;;;;;;;23.01;49.48;101016.89;1673657;83;20476;-89
2022/05/25 09:12:27;;;;;;;;;;;;;;;23.11;49.42;101012.69;1668939;83;20254;-89
2022/05/25 09:15:11;;;;;;;;;;;;;;;23.20;49.36;101011.11;1665726;83;22444;-89
2022/05/25 09:17:53;;;;;;;;;;;;;;;23.29;48.89;101016.27;1665977;83;20204;-88
2022/05/25 09:20:22;;;;;;;;;;;;;;;23.24;48.54;101017.73;1662418;83;20761;-87
2022/05/25 09:22:52;;;;;;;;;;;;;;;23.15;48.42;101027.34;1674660;83;20436;-87
2022/05/25 09:25:17;;;;;;;;;;;;;;;23.15;48.61;101023.78;1658259;83;20533;-87
2022/05/25 09:27:49;;;;;;;;;;;;;;;23.14;48.40;101022.00;1676358;83;21709;-87
2022/05/25 09:30:14;;;;;;;;;;;;;;;23.06;48.72;101017.68;1669224;83;20266;-87
2022/05/25 09:32:53;;;;;;;;;;;;;;;23.05;48.42;101021.77;1666973;85;20212;-87
2022/05/25 09:35:37;;;;;;;;;;;;;;;22.86;48.29;101031.97;1663737;84;20401;-88
2022/05/25 09:38:13;;;;;;;;;;;;;;;22.75;48.38;101035.33;1677035;83;20232;-87
2022/05/25 09:40:56;;;;;;;;;;;;;;;22.56;47.93;101034.40;1659923;83;21729;-87
2022/05/25 09:43:57;;;;;;;;;;;;;;;22.35;48.09;101033.00;1682957;83;20649;-88
2022/05/25 09:46:11;;;;;;;;;;;;;;;22.43;48.49;101024.80;1657091;85;20236;-88
2022/05/25 09:48:59;;;;;;;;;;;;;;;22.65;48.60;101025.25;1672072;83;21043;-88
2022/05/25 09:51:39;;;;;;;;;;;;;;;22.95;48.67;101027.73;1684382;84;20187;-88
2022/05/25 09:54:14;;;;;;;;;;;;;;;23.25;48.06;101032.91;1676359;83;21678;-87
2022/05/25 09:56:54;;;;;;;;;;;;;;;23.33;47.25;101034.54;1674773;83;20259;-88
2022/05/25 09:59:23;;;;;;;;;;;;;;;23.27;46.97;101032.88;1660955;85;20237;-87
2022/05/25 10:01:52;;;;;;;;;;;;;;;23.03;46.77;101037.91;1664431;83;20516;-87
2022/05/25 10:04:22;;;;;;;;;;;;;;;22.80;46.85;101042.84;1675654;83;20295;-87
2022/05/25 10:06:53;;;;;;;;;;;;;;;22.68;46.73;101044.86;1665199;83;21866;-88
2022/05/25 10:12:38;;;;;;;;;;;;;;;22.56;47.30;101046.91;1658896;83;20798;-88
2022/05/25 10:15:41;;;;;;;;;;;;;;;22.69;47.25;101048.42;1668970;83;20198;-88
2022/05/25 10:18:34;;;;;;;;;;;;;;;22.75;47.18;101052.77;1670047;85;20225;-88
2022/05/25 10:21:30;;;;;;;;;;;;;;;22.76;46.82;101055.44;1646286;85;21184;-87
2022/05/25 10:23:57;;;;;;;;;;;;;;;22.74;46.73;101048.34;1650777;83;20253;-88
2022/05/25 10:26:31;;;;;;;;;;;;;;;22.66;46.71;101053.87;1665802;83;20246;-88
2022/05/25 10:29:00;;;;;;;;;;;;;;;22.61;46.72;101051.73;1658638;85;21144;-88
2022/05/25 10:37:10;;;;;;;;;;;;;;;22.19;46.50;101052.49;1665915;83;20283;-87
2022/05/25 10:39:43;;;;;;;;;;;;;;;22.08;46.87;101063.87;1671309;85;20253;-87
2022/05/25 10:42:18;;;;;;;;;;;;;;;22.03;46.92;101069.30;1674423;85;20238;-87
2022/05/25 10:44:51;;;;;;;;;;;;;;;21.99;47.00;101062.69;1663042;83;20213;-87
2022/05/25 10:47:37;;;;;;;;;;;;;;;21.98;47.16;101066.27;1667630;85;21762;-87
2022/05/25 10:50:06;;;;;;;;;;;;;;;21.94;47.22;101064.99;1665798;83;20995;-87
2022/05/25 10:52:37;;;;;;;;;;;;;;;21.89;47.55;101070.87;1658778;85;20216;-87
2022/05/25 10:55:05;;;;;;;;;;;;;;;21.84;47.51;101074.08;1667255;83;21293;-88
2022/05/25 10:57:38;;;;;;;;;;;;;;;21.78;47.67;101069.30;1666491;85;20209;-87
2022/05/25 11:00:11;;;;;;;;;;;;;;;21.74;47.61;101073.35;1664008;83;21805;-87
2022/05/25 11:03:11;;;;;;;;;;;;;;;21.68;47.59;101076.14;1664833;85;20177;-87
2022/05/25 11:05:47;;;;;;;;;;;;;;;21.61;47.49;101073.12;1667120;83;20167;-87
2022/05/25 11:08:35;;;;;;;;;;;;;;;21.51;47.61;101075.06;1665385;85;20359;-87
2022/05/25 11:11:04;;;;;;;;;;;;;;;21.49;47.88;101079.56;1670407;83;20209;-88
2022/05/25 11:13:46;;;;;;;;;;;;;;;21.42;47.72;101076.97;1663200;85;21752;-87
2022/05/25 11:16:31;;;;;;;;;;;;;;;21.40;48.05;101083.67;1674901;85;20252;-88
2022/05/25 11:19:05;;;;;;;;;;;;;;;21.47;48.02;101080.47;1671432;83;20195;-88
2022/05/25 11:21:41;;;;;;;;;;;;;;;21.54;48.23;101079.48;1663034;83;20398;-88
2022/05/25 11:24:34;;;;;;;;;;;;;;;21.58;48.19;101079.86;1666551;83;20224;-88
2022/05/25 11:27:34;;;;;;;;;;;;;;;21.59;48.01;101081.64;1669575;84;21768;-88
2022/05/25 11:30:07;;;;;;;;;;;;;;;21.56;48.03;101081.67;1671055;85;20210;-87
2022/05/25 11:33:04;;;;;;;;;;;;;;;21.45;47.89;101085.84;1675846;84;20272;-88
2022/05/25 11:35:44;;;;;;;;;;;;;;;21.28;48.09;101077.14;1582343;88;20960;-87
2022/05/25 11:38:32;;;;;;;;;;;;;;;21.18;48.10;101087.09;1661906;84;21116;-86
2022/05/25 11:41:27;;;;;;;;;;;;;;;21.08;48.23;101085.47;1678926;83;21837;-87
2022/05/25 11:44:03;;;;;;;;;;;;;;;21.05;48.45;101083.69;1683129;83;20825;-88
2022/05/25 11:46:43;;;;;;;;;;;;;;;21.06;48.26;101083.23;1682353;83;20216;-88
2022/05/25 11:49:42;;;;;;;;;;;;;;;21.10;48.26;101084.53;1674151;83;20410;-87
2022/05/25 11:52:39;;;;;;;;;;;;;;;21.10;48.25;101078.30;1664940;84;20228;-88
2022/05/25 11:55:35;;;;;;;;;;;;;;;21.06;48.31;101073.44;1675347;84;21821;-87
2022/05/25 11:58:15;;;;;;;;;;;;;;;21.03;48.31;101077.48;1663749;84;20196;-87
2022/05/25 12:00:45;;;;;;;;;;;;;;;20.93;48.89;101079.39;1680847;84;20196;-88
2022/05/25 12:03:26;;;;;;;;;;;;;;;20.71;49.36;101073.41;1643088;84;20219;-88
2022/05/25 12:06:17;;;;;;;;;;;;;;;20.54;49.60;101076.70;1685194;83;20238;-87
2022/05/25 12:09:07;;;;;;;;;;;;;;;20.33;49.91;101069.34;1673634;83;21808;-89
2022/05/25 12:11:40;;;;;;;;;;;;;;;19.98;49.93;101069.22;1670459;84;20221;-87
2022/05/25 12:14:25;;;;;;;;;;;;;;;19.62;50.60;101067.70;1665286;83;20227;-87
2022/05/25 12:16:53;;;;;;;;;;;;;;;19.37;50.72;101072.30;1682481;83;20614;-86
2022/05/25 12:19:28;;;;;;;;;;;;;;;19.10;51.15;101078.23;1674824;83;20153;-88
2022/05/25 12:21:57;;;;;;;;;;;;;;;18.92;51.68;101078.31;1682421;84;22492;-87
2022/05/25 12:24:26;;;;;;;;;;;;;;;18.97;52.38;101060.52;1686500;83;20155;-87
2022/05/25 12:27:06;;;;;;;;;;;;;;;19.28;52.51;101076.39;1691557;83;20201;-87
2022/05/25 12:29:40;;;;;;;;;;;;;;;19.40;52.48;101073.17;1659226;84;20221;-88
2022/05/25 12:32:08;;;;;;;;;;;;;;;19.47;52.28;101068.70;1669207;84;20564;-87
2022/05/25 12:34:41;;;;;;;;;;;;;;;19.46;52.35;101059.36;1677654;85;22665;-87
2022/05/25 12:37:10;;;;;;;;;;;;;;;19.33;52.46;101055.88;1670982;83;20839;-86
2022/05/25 12:39:49;;;;;;;;;;;;;;;19.54;52.71;101063.76;1683859;83;20867;-87
2022/05/25 12:42:28;;;;;;;;;;;;;;;19.64;52.69;101062.36;1675162;83;21124;-88
2022/05/25 12:50:51;;;;;;;;;;;;;;;20.00;52.33;101060.73;1677443;85;20209;-88
2022/05/25 12:53:37;;;;;;;;;;;;;;;19.91;51.80;101063.94;1678578;83;20473;-88
2022/05/25 12:56:12;;;;;;;;;;;;;;;19.91;51.91;101063.94;1679852;83;21207;-88
2022/05/25 12:58:59;;;;;;;;;;;;;;;20.16;52.07;101068.17;1673491;83;20238;-88
2022/05/25 13:01:32;;;;;;;;;;;;;;;20.44;51.86;101062.55;1674829;83;20458;-88
2022/05/25 13:04:17;;;;;;;;;;;;;;;20.63;51.51;101065.03;1678747;84;20237;-87
2022/05/25 13:06:50;;;;;;;;;;;;;;;20.54;51.16;101057.98;1668663;83;20175;-88
2022/05/25 13:09:41;;;;;;;;;;;;;;;20.45;51.03;101053.61;1669093;83;20474;-88
2022/05/25 13:12:44;;;;;;;;;;;;;;;20.21;51.00;101058.76;1645742;85;20253;-88
2022/05/25 13:15:23;;;;;;;;;;;;;;;20.21;51.45;101065.44;1663408;83;20554;-88
2022/05/25 13:17:56;;;;;;;;;;;;;;;20.30;51.23;101056.00;1658686;85;20210;-88
2022/05/25 13:20:46;;;;;;;;;;;;;;;20.30;51.15;101049.77;1669499;83;20210;-89
2022/05/25 13:23:03;;;;;;;;;;;;;;;20.33;51.33;101056.44;1663423;83;21666;-88
2022/05/25 13:25:48;;;;;;;;;;;;;;;20.43;51.30;101054.55;1662146;85;20351;-87
2022/05/25 13:28:27;;;;;;;;;;;;;;;20.60;51.28;101056.60;1668594;83;21787;-87
2022/05/25 13:31:06;;;;;;;;;;;;;;;20.59;50.99;101050.34;1631430;85;20210;-88
2022/05/25 13:33:38;;;;;;;;;;;;;;;20.62;51.15;101055.25;1656518;85;20225;-88